Time;durP1;ratioP1;P1;durP2;ratioP2;P2;SDS_P1;SDS_P2;PMS_P1;PMS_P2;Temp;Humidity;BMP_temperature;BMP_pressure;BME280_temperature;BME280_humidity;BME280_pressure;Samples;Min_cycle;Max_cycle;Signal;HPM_P1;HPM_P2
2022/08/08 00:00:32;;;;;;;11.93;5.75;;;;;;;;;;4234551;33;20522;-70
2022/08/08 00:03:09;;;;;;;10.30;6.18;;;;;;;;;;4234352;33;20121;-71
2022/08/08 00:35:13;;;;;;;16.08;7.35;;;;;;;;;;4773965;27;20195;-60
2022/08/08 00:38:03;;;;;;;13.13;7.25;;;;;;;;;;4231580;33;20197;-61
2022/08/08 00:40:39;;;;;;;15.18;7.00;;;;;;;;;;4243408;33;20481;-70
2022/08/08 00:43:21;;;;;;;11.23;6.62;;;;;;;;;;4233509;33;20257;-69
2022/08/08 00:46:00;;;;;;;17.35;6.05;;;;;;;;;;4219779;33;20528;-70
2022/08/08 00:48:58;;;;;;;17.83;6.85;;;;;;;;;;4233219;33;20113;-61
2022/08/08 00:51:46;;;;;;;9.15;6.62;;;;;;;;;;4229878;33;20434;-60
2022/08/08 00:54:33;;;;;;;12.73;6.68;;;;;;;;;;4232946;33;20117;-60
2022/08/08 00:57:11;;;;;;;10.43;6.93;;;;;;;;;;4233014;33;20111;-60
2022/08/08 00:59:37;;;;;;;8.98;7.00;;;;;;;;;;4233302;33;20108;-70
2022/08/08 01:02:28;;;;;;;9.10;6.78;;;;;;;;;;4231790;33;20135;-71
2022/08/08 01:05:45;;;;;;;8.75;6.28;;;;;;;;;;4231494;33;20104;-71
2022/08/08 01:08:28;;;;;;;14.50;6.90;;;;;;;;;;4233029;33;20117;-71
2022/08/08 01:11:32;;;;;;;13.18;7.70;;;;;;;;;;4232551;33;20193;-70
2022/08/08 01:14:16;;;;;;;12.40;7.50;;;;;;;;;;4232852;33;20725;-69
2022/08/08 01:17:03;;;;;;;12.15;6.60;;;;;;;;;;4233082;33;20116;-70
2022/08/08 01:20:06;;;;;;;15.57;7.75;;;;;;;;;;4232829;33;20128;-70
2022/08/08 01:22:54;;;;;;;12.93;6.78;;;;;;;;;;4232713;33;20105;-70
2022/08/08 01:25:47;;;;;;;8.63;7.12;;;;;;;;;;4233045;33;20103;-70
2022/08/08 01:28:28;;;;;;;12.00;6.82;;;;;;;;;;4231399;33;20096;-70
2022/08/08 01:31:22;;;;;;;9.80;6.82;;;;;;;;;;4231233;33;20113;-70
2022/08/08 01:34:06;;;;;;;9.77;6.62;;;;;;;;;;4233113;33;20184;-69
2022/08/08 01:37:04;;;;;;;13.10;7.57;;;;;;;;;;4231279;33;20108;-68
2022/08/08 01:39:42;;;;;;;15.50;6.82;;;;;;;;;;4217232;33;20128;-70
2022/08/08 01:42:19;;;;;;;21.27;8.88;;;;;;;;;;4228786;33;20102;-70
2022/08/08 01:44:47;;;;;;;9.15;5.93;;;;;;;;;;4217384;33;20201;-71
2022/08/08 01:47:50;;;;;;;17.08;7.47;;;;;;;;;;4218488;33;20140;-69
2022/08/08 01:50:28;;;;;;;11.20;6.60;;;;;;;;;;4228747;33;20116;-71
2022/08/08 01:53:17;;;;;;;12.02;6.90;;;;;;;;;;4205266;34;20151;-70
2022/08/08 01:55:58;;;;;;;12.63;7.30;;;;;;;;;;4217272;33;20220;-70
2022/08/08 01:58:27;;;;;;;11.88;6.70;;;;;;;;;;4217410;34;20113;-70
2022/08/08 02:01:08;;;;;;;20.52;7.18;;;;;;;;;;4218274;33;20208;-70
2022/08/08 02:03:58;;;;;;;16.25;6.60;;;;;;;;;;4218490;33;20092;-70
2022/08/08 02:06:55;;;;;;;13.35;6.60;;;;;;;;;;4218319;33;20176;-71
2022/08/08 02:09:36;;;;;;;23.23;7.57;;;;;;;;;;4218591;33;20540;-70
2022/08/08 02:12:08;;;;;;;11.50;6.70;;;;;;;;;;4226059;33;20132;-71
2022/08/08 02:15:10;;;;;;;12.23;6.90;;;;;;;;;;4230976;33;20502;-71
2022/08/08 02:17:57;;;;;;;15.95;7.60;;;;;;;;;;4188189;34;20555;-71
2022/08/08 02:20:30;;;;;;;10.55;6.00;;;;;;;;;;4229957;33;20124;-72
2022/08/08 02:23:08;;;;;;;10.60;5.85;;;;;;;;;;4230929;33;20183;-70
2022/08/08 02:25:55;;;;;;;17.83;6.22;;;;;;;;;;4230719;33;20207;-71
2022/08/08 02:28:43;;;;;;;10.32;5.47;;;;;;;;;;4232602;33;20104;-70
2022/08/08 02:31:39;;;;;;;11.38;6.68;;;;;;;;;;4232101;33;20537;-70
2022/08/08 02:34:20;;;;;;;12.88;7.47;;;;;;;;;;4230651;33;20560;-61
2022/08/08 02:37:08;;;;;;;12.60;7.60;;;;;;;;;;4230600;33;20191;-62
2022/08/08 02:39:58;;;;;;;17.50;6.50;;;;;;;;;;4230795;33;20200;-61
2022/08/08 02:42:33;;;;;;;11.18;6.07;;;;;;;;;;4231990;33;20184;-61
2022/08/08 02:45:01;;;;;;;9.48;5.95;;;;;;;;;;4232134;33;20148;-61
2022/08/08 02:48:05;;;;;;;10.60;6.40;;;;;;;;;;4230567;33;20120;-62
2022/08/08 02:50:55;;;;;;;10.65;6.40;;;;;;;;;;4231883;33;20100;-61
2022/08/08 02:53:39;;;;;;;10.85;6.35;;;;;;;;;;4232238;33;20113;-62
2022/08/08 02:56:16;;;;;;;11.70;6.30;;;;;;;;;;4232165;33;20438;-62
2022/08/08 02:59:20;;;;;;;16.90;6.90;;;;;;;;;;4230602;33;20192;-63
2022/08/08 03:02:07;;;;;;;11.43;6.30;;;;;;;;;;4232042;33;20128;-61
2022/08/08 03:04:48;;;;;;;13.30;6.43;;;;;;;;;;4232318;33;20123;-62
2022/08/08 03:07:55;;;;;;;11.15;6.78;;;;;;;;;;4227523;33;20109;-63
2022/08/08 03:10:37;;;;;;;12.18;7.00;;;;;;;;;;4219848;33;20186;-62
2022/08/08 03:13:25;;;;;;;9.18;6.53;;;;;;;;;;4230445;33;20104;-62
2022/08/08 03:16:23;;;;;;;12.75;7.12;;;;;;;;;;4219655;33;20189;-62
2022/08/08 03:18:57;;;;;;;10.57;6.65;;;;;;;;;;4220007;33;20105;-62
2022/08/08 03:21:23;;;;;;;;;;;;;;;;;;4220175;33;20125;-62
2022/08/08 03:23:49;;;;;;;14.00;8.35;;;;;;;;;;4219918;34;20209;-62
2022/08/08 03:26:21;;;;;;;17.05;8.40;;;;;;;;;;4219562;33;20101;-61
2022/08/08 03:28:50;;;;;;;16.23;9.07;;;;;;;;;;4219901;34;20098;-62
2022/08/08 03:34:05;;;;;;;16.40;8.90;;;;;;;;;;4230023;33;20124;-62
2022/08/08 03:36:34;;;;;;;20.05;10.40;;;;;;;;;;4232481;33;20124;-60
2022/08/08 03:39:00;;;;;;;24.20;12.75;;;;;;;;;;4232720;33;20568;-69
2022/08/08 03:41:34;;;;;;;24.10;12.73;;;;;;;;;;4232301;33;20101;-68
2022/08/08 03:44:00;;;;;;;29.90;15.82;;;;;;;;;;4232588;33;20121;-65
2022/08/08 03:46:26;;;;;;;44.15;18.30;;;;;;;;;;4232717;33;20097;-66
2022/08/08 03:48:59;;;;;;;34.40;19.05;;;;;;;;;;4232575;33;20141;-66
2022/08/08 03:51:25;;;;;;;44.83;20.08;;;;;;;;;;4231210;33;20105;-67
2022/08/08 03:53:52;;;;;;;54.60;21.08;;;;;;;;;;4232597;33;20353;-67
2022/08/08 03:56:19;;;;;;;42.40;21.15;;;;;;;;;;4217370;33;20180;-67
2022/08/08 03:58:49;;;;;;;49.63;21.50;;;;;;;;;;4232445;33;20096;-66
2022/08/08 04:01:15;;;;;;;49.30;23.12;;;;;;;;;;4232733;33;20453;-67
2022/08/08 04:03:45;;;;;;;44.22;21.23;;;;;;;;;;4230559;33;20105;-67
2022/08/08 04:06:12;;;;;;;54.78;25.55;;;;;;;;;;4232025;33;20117;-66
2022/08/08 04:08:38;;;;;;;58.35;25.62;;;;;;;;;;4232286;33;20110;-67
2022/08/08 04:11:05;;;;;;;76.90;29.80;;;;;;;;;;4232276;33;20524;-66
2022/08/08 04:13:32;;;;;;;82.65;29.27;;;;;;;;;;4219936;33;20120;-65
2022/08/08 04:15:58;;;;;;;75.93;29.95;;;;;;;;;;4232198;33;20117;-64
2022/08/08 04:18:24;;;;;;;60.10;27.27;;;;;;;;;;4231626;33;20128;-69
2022/08/08 04:20:50;;;;;;;74.62;27.30;;;;;;;;;;4231556;33;20532;-66
2022/08/08 04:23:16;;;;;;;75.90;30.05;;;;;;;;;;4230261;33;20143;-66
2022/08/08 04:25:42;;;;;;;61.15;29.70;;;;;;;;;;4231307;33;20117;-66
2022/08/08 04:28:09;;;;;;;71.43;30.77;;;;;;;;;;4230107;33;20182;-65
2022/08/08 04:30:35;;;;;;;78.53;31.95;;;;;;;;;;4206855;33;20133;-67
2022/08/08 04:33:01;;;;;;;80.45;32.72;;;;;;;;;;4232922;33;20101;-67
2022/08/08 04:35:27;;;;;;;72.07;31.45;;;;;;;;;;4231768;33;20231;-66
2022/08/08 04:37:54;;;;;;;72.87;33.65;;;;;;;;;;4236437;33;20113;-66
2022/08/08 04:40:20;;;;;;;68.62;29.42;;;;;;;;;;4247692;33;20101;-69
2022/08/08 04:42:47;;;;;;;48.35;24.83;;;;;;;;;;4247199;33;20100;-68
2022/08/08 04:45:13;;;;;;;46.67;22.60;;;;;;;;;;4245986;33;20207;-68
2022/08/08 04:47:39;;;;;;;59.65;22.55;;;;;;;;;;4245914;33;20125;-68
2022/08/08 04:50:06;;;;;;;50.97;24.27;;;;;;;;;;4247149;33;20109;-65
2022/08/08 04:52:32;;;;;;;42.05;22.27;;;;;;;;;;4245698;33;20619;-66
2022/08/08 04:54:58;;;;;;;51.58;23.25;;;;;;;;;;4247490;33;20127;-68
2022/08/08 04:57:24;;;;;;;30.98;18.65;;;;;;;;;;4247159;33;20109;-67
2022/08/08 04:59:50;;;;;;;28.98;15.77;;;;;;;;;;4247204;33;20453;-68
2022/08/08 05:02:16;;;;;;;37.33;19.10;;;;;;;;;;4247045;33;20128;-67
2022/08/08 05:04:42;;;;;;;30.48;16.80;;;;;;;;;;4247136;33;20206;-67
2022/08/08 05:07:09;;;;;;;31.02;13.95;;;;;;;;;;4245877;33;20504;-67
2022/08/08 05:09:35;;;;;;;26.42;12.98;;;;;;;;;;4247033;33;20216;-65
2022/08/08 05:12:02;;;;;;;33.95;16.23;;;;;;;;;;4247137;33;20214;-66
2022/08/08 05:14:28;;;;;;;27.33;16.00;;;;;;;;;;4246992;33;20519;-66
2022/08/08 05:16:55;;;;;;;38.83;15.75;;;;;;;;;;4246980;33;20513;-65
2022/08/08 05:19:21;;;;;;;25.42;15.02;;;;;;;;;;4246841;33;20139;-67
2022/08/08 05:21:48;;;;;;;24.37;13.25;;;;;;;;;;4246955;33;20092;-66
2022/08/08 05:24:15;;;;;;;21.70;13.13;;;;;;;;;;4246768;33;20566;-66
2022/08/08 05:26:45;;;;;;;24.15;12.63;;;;;;;;;;4246344;33;20179;-67
2022/08/08 05:29:11;;;;;;;16.45;10.18;;;;;;;;;;4243772;33;20505;-66
2022/08/08 05:31:38;;;;;;;15.43;9.43;;;;;;;;;;4232715;33;20176;-66
2022/08/08 05:34:06;;;;;;;22.75;11.23;;;;;;;;;;4232553;33;20089;-66
2022/08/08 05:36:34;;;;;;;20.88;10.32;;;;;;;;;;4243262;33;20092;-66
2022/08/08 05:39:04;;;;;;;16.92;8.73;;;;;;;;;;4242546;33;20116;-66
2022/08/08 05:41:34;;;;;;;15.25;8.63;;;;;;;;;;4246757;33;20103;-66
2022/08/08 05:44:11;;;;;;;12.52;8.70;;;;;;;;;;4246577;33;20092;-66
2022/08/08 05:46:38;;;;;;;16.95;9.43;;;;;;;;;;4246791;33;20397;-67
2022/08/08 05:49:04;;;;;;;14.23;9.48;;;;;;;;;;4246594;33;20529;-67
2022/08/08 05:51:30;;;;;;;12.77;9.07;;;;;;;;;;4246905;33;20116;-64
2022/08/08 05:53:56;;;;;;;11.15;9.32;;;;;;;;;;4246867;33;20455;-65
2022/08/08 05:56:22;;;;;;;12.65;9.57;;;;;;;;;;4246524;33;20537;-65
2022/08/08 05:59:01;;;;;;;14.90;9.10;;;;;;;;;;4245185;33;20542;-65
2022/08/08 06:01:27;;;;;;;18.33;9.43;;;;;;;;;;4246664;33;20195;-65
2022/08/08 06:03:57;;;;;;;16.35;8.70;;;;;;;;;;4245429;33;20117;-65
2022/08/08 06:06:24;;;;;;;16.05;8.35;;;;;;;;;;4245034;33;20477;-65
2022/08/08 06:08:51;;;;;;;11.10;8.82;;;;;;;;;;4246773;33;20095;-65
2022/08/08 06:11:18;;;;;;;15.02;8.82;;;;;;;;;;4244819;33;20119;-63
2022/08/08 06:13:46;;;;;;;15.40;8.13;;;;;;;;;;4246426;33;20108;-65
2022/08/08 06:16:12;;;;;;;13.85;8.63;;;;;;;;;;4246571;33;20551;-65
2022/08/08 06:18:40;;;;;;;15.25;9.45;;;;;;;;;;4246760;33;20097;-67
2022/08/08 06:21:07;;;;;;;19.23;10.43;;;;;;;;;;4244906;33;20097;-66
2022/08/08 06:23:33;;;;;;;12.43;8.32;;;;;;;;;;4246401;33;20419;-66
2022/08/08 06:26:03;;;;;;;12.75;8.30;;;;;;;;;;4246286;33;20116;-66
2022/08/08 06:28:36;;;;;;;24.50;9.23;;;;;;;;;;4244975;33;20163;-66
2022/08/08 06:31:05;;;;;;;14.13;8.45;;;;;;;;;;4244838;33;20521;-66
2022/08/08 06:33:38;;;;;;;14.18;9.55;;;;;;;;;;4246329;33;20119;-66
2022/08/08 06:36:05;;;;;;;12.25;9.80;;;;;;;;;;4245080;33;20154;-65
2022/08/08 06:38:35;;;;;;;20.90;10.25;;;;;;;;;;4245991;33;20109;-66
2022/08/08 06:41:06;;;;;;;13.40;9.07;;;;;;;;;;4246263;33;20131;-67
2022/08/08 06:43:36;;;;;;;13.38;9.23;;;;;;;;;;4246163;33;20128;-67
2022/08/08 06:46:03;;;;;;;16.15;9.95;;;;;;;;;;4244627;33;20674;-64
2022/08/08 06:48:29;;;;;;;12.70;9.63;;;;;;;;;;4246166;33;20484;-65
2022/08/08 06:50:57;;;;;;;13.35;8.82;;;;;;;;;;4246172;33;20101;-65
2022/08/08 06:53:24;;;;;;;9.23;7.05;;;;;;;;;;4246112;33;20554;-65
2022/08/08 06:55:51;;;;;;;8.88;6.60;;;;;;;;;;4246427;33;20097;-65
2022/08/08 06:58:17;;;;;;;9.20;7.22;;;;;;;;;;4244757;33;20519;-66
2022/08/08 07:00:45;;;;;;;13.88;6.12;;;;;;;;;;4244566;33;20100;-67
2022/08/08 07:03:19;;;;;;;13.20;6.45;;;;;;;;;;4244693;33;20198;-66
2022/08/08 07:05:50;;;;;;;6.43;5.40;;;;;;;;;;4244711;33;20112;-64
2022/08/08 07:08:22;;;;;;;7.03;6.03;;;;;;;;;;4244553;33;20537;-63
2022/08/08 07:10:50;;;;;;;16.10;7.25;;;;;;;;;;4244517;33;20093;-63
2022/08/08 07:13:17;;;;;;;9.98;6.40;;;;;;;;;;4245825;33;20123;-63
2022/08/08 07:15:44;;;;;;;10.45;6.93;;;;;;;;;;4245857;33;20123;-63
2022/08/08 07:18:10;;;;;;;13.60;6.68;;;;;;;;;;4244313;33;20105;-63
2022/08/08 07:20:38;;;;;;;13.30;6.43;;;;;;;;;;4245738;33;20131;-68
2022/08/08 07:23:15;;;;;;;9.35;7.05;;;;;;;;;;4245740;33;20100;-69
2022/08/08 07:25:43;;;;;;;11.02;6.82;;;;;;;;;;4244247;33;20122;-66
2022/08/08 07:28:12;;;;;;;7.37;6.22;;;;;;;;;;4245829;33;20104;-65
2022/08/08 07:30:39;;;;;;;11.18;5.72;;;;;;;;;;4245955;33;20484;-68
2022/08/08 07:33:07;;;;;;;9.05;5.25;;;;;;;;;;4244360;33;20265;-68
2022/08/08 07:35:35;;;;;;;7.00;5.22;;;;;;;;;;4245573;33;20169;-68
2022/08/08 07:38:02;;;;;;;8.52;5.87;;;;;;;;;;4244538;33;20421;-68
2022/08/08 07:40:28;;;;;;;7.72;5.70;;;;;;;;;;4246073;33;20116;-68
2022/08/08 07:42:54;;;;;;;7.12;6.18;;;;;;;;;;4245762;33;20116;-69
2022/08/08 07:45:21;;;;;;;7.55;5.65;;;;;;;;;;4244338;33;20104;-68
2022/08/08 07:47:47;;;;;;;11.77;5.37;;;;;;;;;;4245823;33;20117;-69
2022/08/08 07:50:13;;;;;;;10.20;6.05;;;;;;;;;;4245870;33;20109;-71
2022/08/08 07:52:42;;;;;;;9.23;6.25;;;;;;;;;;4247907;33;20143;-69
2022/08/08 07:55:25;;;;;;;9.15;6.00;;;;;;;;;;4246562;33;20120;-68
2022/08/08 07:57:54;;;;;;;11.02;6.47;;;;;;;;;;4247853;33;20089;-72
2022/08/08 08:00:20;;;;;;;13.85;6.55;;;;;;;;;;4247817;33;20549;-71
2022/08/08 08:02:55;;;;;;;7.10;5.87;;;;;;;;;;4246243;33;20113;-68
2022/08/08 08:05:26;;;;;;;10.98;6.57;;;;;;;;;;4247824;33;20199;-67
2022/08/08 08:07:55;;;;;;;14.20;6.50;;;;;;;;;;4244660;33;20112;-68
2022/08/08 08:10:23;;;;;;;7.70;4.62;;;;;;;;;;4231887;33;20141;-67
2022/08/08 08:12:52;;;;;;;12.70;5.62;;;;;;;;;;4243365;33;20476;-67
2022/08/08 08:15:25;;;;;;;7.22;4.93;;;;;;;;;;4243831;33;20151;-67
2022/08/08 08:17:57;;;;;;;7.78;5.43;;;;;;;;;;4243195;33;20121;-68
2022/08/08 08:20:27;;;;;;;7.15;5.35;;;;;;;;;;4243255;33;20124;-67
2022/08/08 08:22:53;;;;;;;8.55;4.78;;;;;;;;;;4243147;33;20203;-67
2022/08/08 08:25:19;;;;;;;10.48;4.78;;;;;;;;;;4242890;33;20142;-67
2022/08/08 08:27:45;;;;;;;7.15;4.32;;;;;;;;;;4243300;33;20532;-68
2022/08/08 08:30:12;;;;;;;5.53;4.43;;;;;;;;;;4242958;33;20650;-70
2022/08/08 08:32:38;;;;;;;5.62;4.30;;;;;;;;;;4243118;33;20680;-67
2022/08/08 08:35:05;;;;;;;7.72;5.30;;;;;;;;;;4243381;33;20219;-67
2022/08/08 08:37:31;;;;;;;7.18;4.65;;;;;;;;;;4247312;33;20497;-67
2022/08/08 08:39:57;;;;;;;7.05;4.32;;;;;;;;;;4247290;33;20103;-67
2022/08/08 08:42:24;;;;;;;5.15;4.60;;;;;;;;;;4247536;33;20108;-67
2022/08/08 08:44:51;;;;;;;9.60;5.15;;;;;;;;;;4245842;33;20093;-67
2022/08/08 08:47:18;;;;;;;7.45;4.85;;;;;;;;;;4247249;33;20112;-69
2022/08/08 08:49:44;;;;;;;6.90;4.75;;;;;;;;;;4247381;33;20112;-69
2022/08/08 08:52:13;;;;;;;9.02;4.53;;;;;;;;;;4247131;33;20539;-70
2022/08/08 08:54:40;;;;;;;5.20;4.40;;;;;;;;;;4247315;33;20120;-65
2022/08/08 08:57:07;;;;;;;6.57;4.87;;;;;;;;;;4245684;33;20114;-65
2022/08/08 08:59:35;;;;;;;9.50;5.30;;;;;;;;;;4247278;33;20223;-66
2022/08/08 09:02:01;;;;;;;5.90;4.55;;;;;;;;;;4246708;33;20505;-65
2022/08/08 09:04:30;;;;;;;5.05;4.55;;;;;;;;;;4245538;33;20115;-65
2022/08/08 09:06:58;;;;;;;7.30;4.53;;;;;;;;;;4245619;33;20124;-66
2022/08/08 09:09:26;;;;;;;9.60;4.85;;;;;;;;;;4245608;33;20085;-68
2022/08/08 09:11:53;;;;;;;9.57;4.62;;;;;;;;;;4245839;33;20509;-66
2022/08/08 09:14:23;;;;;;;9.15;5.25;;;;;;;;;;4246824;33;20112;-68
2022/08/08 09:16:50;;;;;;;15.57;5.20;;;;;;;;;;4247012;33;20089;-65
2022/08/08 09:19:17;;;;;;;24.50;13.07;;;;;;;;;;4246923;33;20164;-64
2022/08/08 09:21:44;;;;;;;17.27;11.60;;;;;;;;;;4246946;33;20116;-70
2022/08/08 09:24:11;;;;;;;17.35;11.30;;;;;;;;;;4245368;33;20187;-65
2022/08/08 09:26:42;;;;;;;23.60;12.73;;;;;;;;;;4245802;33;20191;-66
2022/08/08 09:29:13;;;;;;;16.98;10.90;;;;;;;;;;4245327;33;20103;-66
2022/08/08 09:31:53;;;;;;;20.40;11.80;;;;;;;;;;4245748;33;20108;-66
2022/08/08 09:34:20;;;;;;;22.15;11.12;;;;;;;;;;4246832;33;20113;-66
2022/08/08 09:36:47;;;;;;;16.05;9.68;;;;;;;;;;4246972;33;20586;-66
2022/08/08 09:39:18;;;;;;;11.00;9.10;;;;;;;;;;4246615;33;20123;-64
2022/08/08 09:41:51;;;;;;;12.63;7.15;;;;;;;;;;4246904;33;20515;-65
2022/08/08 09:44:48;;;;;;;18.42;11.12;;;;;;;;;;4245526;33;20113;-65
2022/08/08 09:47:14;;;;;;;24.35;13.48;;;;;;;;;;4246749;33;20109;-65
2022/08/08 09:49:43;;;;;;;16.85;12.55;;;;;;;;;;4246903;33;20196;-65
2022/08/08 09:52:09;;;;;;;23.83;12.50;;;;;;;;;;4245436;33;20522;-65
2022/08/08 09:54:42;;;;;;;20.52;11.60;;;;;;;;;;4246480;33;20111;-65
2022/08/08 09:57:10;;;;;;;12.52;7.15;;;;;;;;;;4246642;33;20516;-65
2022/08/08 09:59:39;;;;;;;6.87;4.35;;;;;;;;;;4246607;33;20112;-65
2022/08/08 10:02:06;;;;;;;5.32;4.40;;;;;;;;;;4246702;33;20328;-65
2022/08/08 10:04:34;;;;;;;13.23;8.10;;;;;;;;;;4245060;33;20135;-66
2022/08/08 10:07:02;;;;;;;9.85;5.90;;;;;;;;;;4234920;33;20520;-65
2022/08/08 10:09:32;;;;;;;8.02;5.25;;;;;;;;;;4232163;33;20172;-65
2022/08/08 10:12:02;;;;;;;6.07;5.28;;;;;;;;;;4232360;33;20628;-64
2022/08/08 10:14:33;;;;;;;9.65;5.47;;;;;;;;;;4208332;33;20132;-64
2022/08/08 10:17:03;;;;;;;8.00;5.00;;;;;;;;;;4219229;33;20093;-65
2022/08/08 10:19:38;;;;;;;5.18;4.53;;;;;;;;;;4230789;33;20117;-66
2022/08/08 10:22:04;;;;;;;;;;;;;;;;;;4208064;33;20089;-64
2022/08/08 10:24:32;;;;;;;6.93;5.82;;;;;;;;;;4230958;33;20007;-65
2022/08/08 10:27:03;;;;;;;13.50;6.75;;;;;;;;;;4209700;34;20140;-64
2022/08/08 10:29:53;;;;;;;13.52;7.85;;;;;;;;;;4194457;34;20189;-64
2022/08/08 10:32:31;;;;;;;15.18;10.65;;;;;;;;;;4217044;33;20116;-65
2022/08/08 10:34:59;;;;;;;24.98;12.80;;;;;;;;;;4231022;33;20128;-66
2022/08/08 10:37:27;;;;;;;19.50;11.68;;;;;;;;;;4231645;33;20184;-64
2022/08/08 10:39:55;;;;;;;29.23;13.18;;;;;;;;;;4219386;33;20100;-66
2022/08/08 10:42:32;;;;;;;24.17;14.57;;;;;;;;;;4196179;33;20102;-65
2022/08/08 10:45:00;;;;;;;16.98;11.65;;;;;;;;;;4231906;33;20537;-65
2022/08/08 10:47:26;;;;;;;26.20;11.75;;;;;;;;;;4230866;33;20231;-63
2022/08/08 10:50:01;;;;;;;20.98;12.60;;;;;;;;;;4208229;33;20209;-64
2022/08/08 10:52:35;;;;;;;14.60;10.10;;;;;;;;;;4206867;33;20516;-64
2022/08/08 10:55:05;;;;;;;16.95;11.18;;;;;;;;;;4230663;33;20114;-64
2022/08/08 10:57:36;;;;;;;22.73;12.20;;;;;;;;;;4231988;33;20093;-64
2022/08/08 11:00:03;;;;;;;16.65;10.90;;;;;;;;;;4231899;33;20097;-64
2022/08/08 11:02:31;;;;;;;17.35;9.82;;;;;;;;;;4231823;33;20086;-65
2022/08/08 11:04:58;;;;;;;17.20;10.35;;;;;;;;;;4231647;33;20106;-64
2022/08/08 11:07:24;;;;;;;19.08;10.07;;;;;;;;;;4231913;33;20125;-64
2022/08/08 11:09:50;;;;;;;15.93;10.07;;;;;;;;;;4231804;33;20111;-64
2022/08/08 11:12:16;;;;;;;17.77;9.20;;;;;;;;;;4231734;33;20121;-64
2022/08/08 11:14:55;;;;;;;10.80;7.97;;;;;;;;;;4230499;33;20186;-68
2022/08/08 11:17:24;;;;;;;11.38;8.70;;;;;;;;;;4231819;33;20205;-65
2022/08/08 11:19:51;;;;;;;8.57;6.20;;;;;;;;;;4231731;33;20269;-65
2022/08/08 11:22:23;;;;;;;12.00;5.57;;;;;;;;;;4231765;33;20129;-67
2022/08/08 11:24:49;;;;;;;10.35;6.50;;;;;;;;;;4231655;33;20522;-65
2022/08/08 11:27:16;;;;;;;9.10;6.55;;;;;;;;;;4232425;33;20196;-65
2022/08/08 11:29:43;;;;;;;11.10;6.20;;;;;;;;;;4233742;33;20120;-65
2022/08/08 11:32:11;;;;;;;7.93;6.10;;;;;;;;;;4232631;33;20176;-65
2022/08/08 11:34:38;;;;;;;13.05;6.28;;;;;;;;;;4233664;33;20125;-64
2022/08/08 11:37:05;;;;;;;7.75;5.20;;;;;;;;;;4232340;33;20120;-64
2022/08/08 11:39:31;;;;;;;5.85;4.72;;;;;;;;;;4233580;33;20188;-65
2022/08/08 11:41:58;;;;;;;15.75;7.28;;;;;;;;;;4232341;33;20497;-65
2022/08/08 11:44:24;;;;;;;7.30;6.15;;;;;;;;;;4233920;33;20108;-65
2022/08/08 11:46:56;;;;;;;8.15;6.03;;;;;;;;;;4232313;33;20101;-65
2022/08/08 11:49:23;;;;;;;7.87;5.50;;;;;;;;;;4233644;33;20434;-66
2022/08/08 11:51:52;;;;;;;8.00;4.72;;;;;;;;;;4232164;33;20124;-66
2022/08/08 11:54:32;;;;;;;9.85;6.18;;;;;;;;;;4233838;33;20110;-64
2022/08/08 11:57:09;;;;;;;11.23;6.72;;;;;;;;;;4233787;33;20272;-64
2022/08/08 11:59:37;;;;;;;16.90;6.18;;;;;;;;;;4233598;33;20112;-64
2022/08/08 12:02:05;;;;;;;7.97;5.80;;;;;;;;;;4233625;33;20183;-64
2022/08/08 12:04:35;;;;;;;13.13;6.50;;;;;;;;;;4233481;33;20213;-65
2022/08/08 12:07:05;;;;;;;11.55;5.95;;;;;;;;;;4232209;33;20114;-65
2022/08/08 12:09:31;;;;;;;8.23;6.47;;;;;;;;;;4233434;33;20117;-66
2022/08/08 12:11:57;;;;;;;5.37;4.07;;;;;;;;;;4233445;33;20268;-66
2022/08/08 12:14:24;;;;;;;8.25;5.90;;;;;;;;;;4233501;33;20135;-65
2022/08/08 12:16:53;;;;;;;11.40;5.37;;;;;;;;;;4233454;33;20208;-70
2022/08/08 12:19:24;;;;;;;9.75;5.95;;;;;;;;;;4233377;33;20189;-68
2022/08/08 12:21:51;;;;;;;10.40;5.90;;;;;;;;;;4234149;33;20176;-66
2022/08/08 12:24:18;;;;;;;9.75;5.53;;;;;;;;;;4233352;33;20855;-69
2022/08/08 12:26:52;;;;;;;6.97;4.62;;;;;;;;;;4231949;33;20107;-63
2022/08/08 12:29:21;;;;;;;7.68;4.32;;;;;;;;;;4243959;33;20207;-65
2022/08/08 12:32:18;;;;;;;4.45;3.37;;;;;;;;;;4233204;33;20124;-65
2022/08/08 12:35:05;;;;;;;7.95;5.82;;;;;;;;;;4233044;33;20107;-65
2022/08/08 12:37:33;;;;;;;9.82;5.70;;;;;;;;;;4232901;33;20094;-64
2022/08/08 12:40:14;;;;;;;7.43;5.75;;;;;;;;;;4247516;33;20116;-65
2022/08/08 12:42:47;;;;;;;11.63;2.47;;;;;;;;;;4247511;33;20295;-65
2022/08/08 12:45:14;;;;;;;12.77;4.15;;;;;;;;;;4247295;33;20511;-68
2022/08/08 12:47:40;;;;;;;7.28;4.15;;;;;;;;;;4247575;33;20204;-64
2022/08/08 12:50:07;;;;;;;12.93;4.10;;;;;;;;;;4247062;33;20183;-65
2022/08/08 12:52:40;;;;;;;10.65;2.55;;;;;;;;;;4247265;33;20219;-67
2022/08/08 12:55:10;;;;;;;9.77;6.32;;;;;;;;;;4247159;33;20228;-66
2022/08/08 12:57:37;;;;;;;11.60;5.80;;;;;;;;;;4247141;33;20540;-63
2022/08/08 13:00:05;;;;;;;8.60;6.62;;;;;;;;;;4247104;33;20100;-64
2022/08/08 13:02:36;;;;;;;15.18;5.37;;;;;;;;;;4247438;33;20112;-69
2022/08/08 13:05:06;;;;;;;10.55;5.47;;;;;;;;;;4245684;33;20524;-65
2022/08/08 13:07:34;;;;;;;11.93;5.90;;;;;;;;;;4246717;33;20117;-65
2022/08/08 13:10:02;;;;;;;14.57;6.35;;;;;;;;;;4244401;33;20192;-65
2022/08/08 13:12:36;;;;;;;19.85;7.93;;;;;;;;;;4218770;34;20212;-69
2022/08/08 13:15:05;;;;;;;8.32;4.97;;;;;;;;;;4219138;33;20117;-66
2022/08/08 13:17:32;;;;;;;9.70;6.93;;;;;;;;;;4217389;34;20556;-65
2022/08/08 13:19:58;;;;;;;15.77;6.30;;;;;;;;;;4219022;33;20109;-65
2022/08/08 13:22:24;;;;;;;13.75;6.47;;;;;;;;;;4218926;34;20116;-65
2022/08/08 13:24:51;;;;;;;9.45;5.90;;;;;;;;;;4218865;33;20521;-65
2022/08/08 13:27:19;;;;;;;11.50;5.37;;;;;;;;;;4218749;34;20204;-65
2022/08/08 13:29:53;;;;;;;1.45;1.33;;;;;;;;;;4218728;33;20220;-64
2022/08/08 13:32:20;;;;;;;8.57;5.10;;;;;;;;;;4216900;34;20106;-65
2022/08/08 13:34:54;;;;;;;8.68;5.53;;;;;;;;;;4218415;33;20098;-67
2022/08/08 13:37:21;;;;;;;10.57;7.07;;;;;;;;;;4218948;33;20216;-65
2022/08/08 13:39:49;;;;;;;14.57;7.20;;;;;;;;;;4219785;33;20136;-63
2022/08/08 13:42:16;;;;;;;11.18;6.82;;;;;;;;;;4232603;33;20129;-62
2022/08/08 13:44:42;;;;;;;12.48;6.57;;;;;;;;;;4232411;33;20165;-64
2022/08/08 13:47:17;;;;;;;11.80;7.32;;;;;;;;;;4232355;33;20120;-66
2022/08/08 13:49:43;;;;;;;16.55;7.85;;;;;;;;;;4238751;33;20123;-64
2022/08/08 13:52:10;;;;;;;9.38;6.57;;;;;;;;;;4228680;33;20113;-65
2022/08/08 13:54:38;;;;;;;13.40;7.35;;;;;;;;;;4228639;33;20113;-64
2022/08/08 13:57:12;;;;;;;15.57;7.47;;;;;;;;;;4228518;33;20152;-65
2022/08/08 13:59:46;;;;;;;13.15;6.85;;;;;;;;;;4228217;33;20508;-65
2022/08/08 14:02:14;;;;;;;19.27;8.27;;;;;;;;;;4230837;33;20216;-65
2022/08/08 14:05:02;;;;;;;11.63;7.47;;;;;;;;;;4232488;33;20120;-65
2022/08/08 14:07:31;;;;;;;16.30;8.57;;;;;;;;;;4232447;33;20571;-65
2022/08/08 14:10:10;;;;;;;18.08;9.20;;;;;;;;;;4232251;33;20160;-67
2022/08/08 14:12:38;;;;;;;13.07;6.60;;;;;;;;;;4232330;33;20135;-67
2022/08/08 14:15:06;;;;;;;13.62;6.60;;;;;;;;;;4232346;33;20560;-67
2022/08/08 14:17:32;;;;;;;14.30;7.37;;;;;;;;;;4232346;33;20504;-70
2022/08/08 14:20:09;;;;;;;11.02;7.10;;;;;;;;;;4232522;33;20121;-71
2022/08/08 14:22:37;;;;;;;17.00;9.18;;;;;;;;;;4232294;33;20541;-67
2022/08/08 14:25:06;;;;;;;20.25;9.70;;;;;;;;;;4232236;33;20129;-68
2022/08/08 14:27:33;;;;;;;19.25;10.25;;;;;;;;;;4232244;33;20199;-67
2022/08/08 14:30:16;;;;;;;18.17;9.15;;;;;;;;;;4232219;33;20127;-68
2022/08/08 14:32:51;;;;;;;17.02;9.65;;;;;;;;;;4232221;33;20525;-67
2022/08/08 14:35:19;;;;;;;18.17;9.60;;;;;;;;;;4232243;33;20105;-68
2022/08/08 14:37:47;;;;;;;21.15;9.77;;;;;;;;;;4234798;33;20096;-70
2022/08/08 14:40:21;;;;;;;17.92;10.35;;;;;;;;;;4246306;33;20137;-70
2022/08/08 14:42:49;;;;;;;18.00;10.07;;;;;;;;;;4233377;33;20111;-69
2022/08/08 14:45:15;;;;;;;24.85;11.60;;;;;;;;;;4244717;33;20536;-68
2022/08/08 14:47:45;;;;;;;23.15;10.93;;;;;;;;;;4246461;33;20288;-68
2022/08/08 14:50:17;;;;;;;18.65;9.98;;;;;;;;;;4246307;33;20169;-66
2022/08/08 14:52:53;;;;;;;19.87;11.48;;;;;;;;;;4246269;33;20210;-65
2022/08/08 14:55:20;;;;;;;25.48;10.95;;;;;;;;;;4246149;33;20115;-66
2022/08/08 14:57:46;;;;;;;19.15;10.32;;;;;;;;;;4246035;33;20588;-68
2022/08/08 15:00:13;;;;;;;20.88;11.12;;;;;;;;;;4247110;33;20136;-67
2022/08/08 15:02:40;;;;;;;18.00;11.12;;;;;;;;;;4248217;33;20093;-67
2022/08/08 15:05:07;;;;;;;20.42;12.25;;;;;;;;;;4246738;33;20210;-67
2022/08/08 15:07:33;;;;;;;24.67;13.00;;;;;;;;;;4248091;33;20160;-66
2022/08/08 15:09:59;;;;;;;24.63;13.10;;;;;;;;;;4248317;33;20129;-67
2022/08/08 15:12:25;;;;;;;26.25;13.60;;;;;;;;;;4248042;33;20211;-72
2022/08/08 15:14:51;;;;;;;22.48;13.85;;;;;;;;;;4246684;33;20098;-69
2022/08/08 15:17:17;;;;;;;28.92;13.90;;;;;;;;;;4248067;33;20516;-70
2022/08/08 15:19:43;;;;;;;20.75;13.18;;;;;;;;;;4247953;33;20169;-72
2022/08/08 15:22:10;;;;;;;30.77;14.45;;;;;;;;;;4247886;33;20116;-66
2022/08/08 15:24:36;;;;;;;24.42;12.98;;;;;;;;;;4248096;33;20093;-65
2022/08/08 15:27:02;;;;;;;21.87;12.23;;;;;;;;;;4247844;33;20283;-66
2022/08/08 15:29:28;;;;;;;20.35;12.02;;;;;;;;;;4247775;33;20116;-67